sensor_id;sensor_type;location;lat;lon;timestamp;pressure;altitude;pressure_sealevel;temperature;humidity
49835;BME280;35729;52.090;13.162;2022-09-09T00:00:37;100471.97;;;13.83;99.95
49835;BME280;35729;52.090;13.162;2022-09-09T00:03:12;100479.09;;;13.81;99.83
49835;BME280;35729;52.090;13.162;2022-09-09T00:05:47;100473.94;;;13.78;99.93
49835;BME280;35729;52.090;13.162;2022-09-09T00:08:20;100472.34;;;13.74;100.00
49835;BME280;35729;52.090;13.162;2022-09-09T00:10:56;100468.06;;;13.72;99.98
49835;BME280;35729;52.090;13.162;2022-09-09T00:13:38;100476.03;;;13.70;99.84
49835;BME280;35729;52.090;13.162;2022-09-09T00:16:16;100472.66;;;13.66;99.83
49835;BME280;35729;52.090;13.162;2022-09-09T00:18:57;100474.53;;;13.63;99.70
49835;BME280;35729;52.090;13.162;2022-09-09T00:21:33;100476.38;;;13.61;100.00
49835;BME280;35729;52.090;13.162;2022-09-09T00:24:10;100472.97;;;13.59;99.88
49835;BME280;35729;52.090;13.162;2022-09-09T00:26:42;100465.16;;;13.56;99.68
49835;BME280;35729;52.090;13.162;2022-09-09T00:29:19;100467.00;;;13.54;99.97
49835;BME280;35729;52.090;13.162;2022-09-09T00:31:57;100464.47;;;13.50;100.00
49835;BME280;35729;52.090;13.162;2022-09-09T00:34:29;100473.41;;;13.46;99.95
49835;BME280;35729;52.090;13.162;2022-09-09T00:36:59;100463.84;;;13.44;99.82
49835;BME280;35729;52.090;13.162;2022-09-09T00:39:32;100463.09;;;13.40;99.61
49835;BME280;35729;52.090;13.162;2022-09-09T00:42:13;100459.66;;;13.38;99.86
49835;BME280;35729;52.090;13.162;2022-09-09T00:44:56;100463.25;;;13.35;99.82
49835;BME280;35729;52.090;13.162;2022-09-09T00:47:48;100466.00;;;13.32;99.73
49835;BME280;35729;52.090;13.162;2022-09-09T00:50:39;100469.63;;;13.30;99.80
49835;BME280;35729;52.090;13.162;2022-09-09T00:53:26;100456.53;;;13.27;99.82
49835;BME280;35729;52.090;13.162;2022-09-09T00:56:02;100462.75;;;13.26;99.81
49835;BME280;35729;52.090;13.162;2022-09-09T00:58:37;100469.84;;;13.24;99.94
49835;BME280;35729;52.090;13.162;2022-09-09T01:01:10;100458.63;;;13.18;100.00
49835;BME280;35729;52.090;13.162;2022-09-09T01:03:47;100462.97;;;13.19;99.98
49835;BME280;35729;52.090;13.162;2022-09-09T01:06:22;100463.88;;;13.18;100.00
49835;BME280;35729;52.090;13.162;2022-09-09T01:09:04;100462.16;;;13.17;99.94
49835;BME280;35729;52.090;13.162;2022-09-09T01:11:45;100470.13;;;13.16;100.00
49835;BME280;35729;52.090;13.162;2022-09-09T01:14:29;100465.84;;;13.13;99.86
49835;BME280;35729;52.090;13.162;2022-09-09T01:17:04;100472.94;;;13.11;100.00
49835;BME280;35729;52.090;13.162;2022-09-09T01:19:52;100471.09;;;13.13;100.00
49835;BME280;35729;52.090;13.162;2022-09-09T01:22:32;100472.84;;;13.13;100.00
49835;BME280;35729;52.090;13.162;2022-09-09T01:25:15;100473.69;;;13.15;100.00
49835;BME280;35729;52.090;13.162;2022-09-09T01:27:51;100470.13;;;13.16;100.00
49835;BME280;35729;52.090;13.162;2022-09-09T01:30:22;100471.03;;;13.15;100.00
49835;BME280;35729;52.090;13.162;2022-09-09T01:32:54;100470.06;;;13.17;100.00
49835;BME280;35729;52.090;13.162;2022-09-09T01:35:32;100462.09;;;13.19;100.00
49835;BME280;35729;52.090;13.162;2022-09-09T01:38:03;100466.53;;;13.18;100.00
49835;BME280;35729;52.090;13.162;2022-09-09T01:40:32;100464.69;;;13.20;100.00
49835;BME280;35729;52.090;13.162;2022-09-09T01:43:03;100466.41;;;13.22;100.00
49835;BME280;35729;52.090;13.162;2022-09-09T01:45:33;100469.03;;;13.22;100.00
49835;BME280;35729;52.090;13.162;2022-09-09T01:48:02;100463.75;;;13.22;100.00
49835;BME280;35729;52.090;13.162;2022-09-09T01:50:31;100469.03;;;13.22;100.00
49835;BME280;35729;52.090;13.162;2022-09-09T01:53:01;100469.03;;;13.22;100.00
49835;BME280;35729;52.090;13.162;2022-09-09T01:55:32;100474.28;;;13.22;100.00
49835;BME280;35729;52.090;13.162;2022-09-09T01:58:15;100466.41;;;13.22;100.00
49835;BME280;35729;52.090;13.162;2022-09-09T02:00:51;100469.09;;;13.20;99.99
49835;BME280;35729;52.090;13.162;2022-09-09T02:03:27;100463.88;;;13.18;100.00
49835;BME280;35729;52.090;13.162;2022-09-09T02:06:02;100470.00;;;13.19;99.83
49835;BME280;35729;52.090;13.162;2022-09-09T02:08:38;100467.38;;;13.19;100.00
49835;BME280;35729;52.090;13.162;2022-09-09T02:11:12;100470.88;;;13.19;99.79
49835;BME280;35729;52.090;13.162;2022-09-09T02:13:46;100479.69;;;13.18;99.71
49835;BME280;35729;52.090;13.162;2022-09-09T02:16:19;100477.06;;;13.18;99.46
49835;BME280;35729;52.090;13.162;2022-09-09T02:18:52;100482.38;;;13.17;99.65
49835;BME280;35729;52.090;13.162;2022-09-09T02:21:25;100484.16;;;13.16;99.48
49835;BME280;35729;52.090;13.162;2022-09-09T02:23:58;100478.94;;;13.15;99.40
49835;BME280;35729;52.090;13.162;2022-09-09T02:26:29;100481.63;;;13.13;99.11
49835;BME280;35729;52.090;13.162;2022-09-09T02:29:03;100484.38;;;13.10;99.29
49835;BME280;35729;52.090;13.162;2022-09-09T02:31:34;100489.69;;;13.09;99.23
49835;BME280;35729;52.090;13.162;2022-09-09T02:34:05;100487.97;;;13.08;99.21
49835;BME280;35729;52.090;13.162;2022-09-09T02:36:36;100483.63;;;13.07;99.05
49835;BME280;35729;52.090;13.162;2022-09-09T02:39:07;100474.03;;;13.06;99.30
49835;BME280;35729;52.090;13.162;2022-09-09T02:41:40;100474.06;;;13.04;98.99
49835;BME280;35729;52.090;13.162;2022-09-09T02:44:15;100475.03;;;13.01;98.85
49835;BME280;35729;52.090;13.162;2022-09-09T02:46:56;100476.81;;;13.01;98.90
49835;BME280;35729;52.090;13.162;2022-09-09T02:49:40;100474.31;;;12.98;98.91
49835;BME280;35729;52.090;13.162;2022-09-09T02:52:14;100471.66;;;12.98;99.01
49835;BME280;35729;52.090;13.162;2022-09-09T02:54:44;100478.75;;;12.96;98.76
49835;BME280;35729;52.090;13.162;2022-09-09T02:57:17;100482.28;;;12.95;98.85
49835;BME280;35729;52.090;13.162;2022-09-09T02:59:50;100482.34;;;12.93;98.87
49835;BME280;35729;52.090;13.162;2022-09-09T03:02:20;100473.63;;;12.91;98.73
49835;BME280;35729;52.090;13.162;2022-09-09T03:04:49;100473.69;;;12.90;98.75
49835;BME280;35729;52.090;13.162;2022-09-09T03:07:18;100479.88;;;12.88;98.64
49835;BME280;35729;52.090;13.162;2022-09-09T03:09:47;100481.72;;;12.86;98.60
49835;BME280;35729;52.090;13.162;2022-09-09T03:12:16;100486.19;;;12.84;98.35
49835;BME280;35729;52.090;13.162;2022-09-09T03:14:45;100485.34;;;12.82;98.40
49835;BME280;35729;52.090;13.162;2022-09-09T03:17:22;100490.69;;;12.81;98.45
49835;BME280;35729;52.090;13.162;2022-09-09T03:19:58;100488.06;;;12.81;98.45
49835;BME280;35729;52.090;13.162;2022-09-09T03:22:27;100488.09;;;12.79;98.50
49835;BME280;35729;52.090;13.162;2022-09-09T03:24:55;100490.75;;;12.79;98.35
49835;BME280;35729;52.090;13.162;2022-09-09T03:27:24;100489.03;;;12.78;98.10
49835;BME280;35729;52.090;13.162;2022-09-09T03:29:52;100495.19;;;12.77;98.26
49835;BME280;35729;52.090;13.162;2022-09-09T03:32:24;100501.38;;;12.76;98.16
49835;BME280;35729;52.090;13.162;2022-09-09T03:34:52;100502.31;;;12.75;98.15
49835;BME280;35729;52.090;13.162;2022-09-09T03:37:21;100500.63;;;12.73;98.12
49835;BME280;35729;52.090;13.162;2022-09-09T03:39:49;100504.13;;;12.73;98.14
49835;BME280;35729;52.090;13.162;2022-09-09T03:42:19;100496.28;;;12.71;97.99
49835;BME280;35729;52.090;13.162;2022-09-09T03:44:48;100502.44;;;12.70;97.91
49835;BME280;35729;52.090;13.162;2022-09-09T03:47:17;100498.09;;;12.69;97.94
49835;BME280;35729;52.090;13.162;2022-09-09T03:49:49;100501.63;;;12.68;97.92
49835;BME280;35729;52.090;13.162;2022-09-09T03:52:18;100496.44;;;12.67;97.98
49835;BME280;35729;52.090;13.162;2022-09-09T03:54:47;100494.69;;;12.66;97.85
49835;BME280;35729;52.090;13.162;2022-09-09T03:57:15;100497.34;;;12.66;97.82
49835;BME280;35729;52.090;13.162;2022-09-09T03:59:44;100491.22;;;12.65;97.77
49835;BME280;35729;52.090;13.162;2022-09-09T04:02:12;100499.19;;;12.64;97.61
49835;BME280;35729;52.090;13.162;2022-09-09T04:04:41;100495.66;;;12.63;97.75
49835;BME280;35729;52.090;13.162;2022-09-09T04:07:12;100497.47;;;12.63;97.78
49835;BME280;35729;52.090;13.162;2022-09-09T04:09:40;100493.09;;;12.62;97.72
49835;BME280;35729;52.090;13.162;2022-09-09T04:12:09;100488.84;;;12.58;97.78
49835;BME280;35729;52.090;13.162;2022-09-09T04:14:38;100499.25;;;12.61;97.74
49835;BME280;35729;52.090;13.162;2022-09-09T04:17:07;100495.84;;;12.59;97.55
49835;BME280;35729;52.090;13.162;2022-09-09T04:19:35;100496.75;;;12.58;97.59
49835;BME280;35729;52.090;13.162;2022-09-09T04:22:04;100502.91;;;12.57;97.60
49835;BME280;35729;52.090;13.162;2022-09-09T04:24:35;100501.19;;;12.55;97.50
49835;BME280;35729;52.090;13.162;2022-09-09T04:27:03;100503.00;;;12.53;97.60
49835;BME280;35729;52.090;13.162;2022-09-09T04:29:32;100508.28;;;12.53;97.52
49835;BME280;35729;52.090;13.162;2022-09-09T04:32:01;100503.94;;;12.52;97.58
49835;BME280;35729;52.090;13.162;2022-09-09T04:34:30;100505.75;;;12.50;97.47
49835;BME280;35729;52.090;13.162;2022-09-09T04:36:58;100504.94;;;12.48;97.63
49835;BME280;35729;52.090;13.162;2022-09-09T04:39:27;100507.56;;;12.48;97.37
49835;BME280;35729;52.090;13.162;2022-09-09T04:41:58;100516.41;;;12.47;97.46
49835;BME280;35729;52.090;13.162;2022-09-09T04:44:27;100519.94;;;12.46;97.38
49835;BME280;35729;52.090;13.162;2022-09-09T04:46:55;100512.88;;;12.47;97.37
49835;BME280;35729;52.090;13.162;2022-09-09T04:49:24;100510.31;;;12.45;97.57
49835;BME280;35729;52.090;13.162;2022-09-09T04:51:52;100512.94;;;12.45;97.31
49835;BME280;35729;52.090;13.162;2022-09-09T04:54:21;100512.13;;;12.43;97.47
49835;BME280;35729;52.090;13.162;2022-09-09T04:56:50;100515.59;;;12.45;97.47
49835;BME280;35729;52.090;13.162;2022-09-09T04:59:23;100524.28;;;12.47;97.51
49835;BME280;35729;52.090;13.162;2022-09-09T05:01:51;100519.81;;;12.49;97.39
49835;BME280;35729;52.090;13.162;2022-09-09T05:04:20;100523.28;;;12.51;97.63
49835;BME280;35729;52.090;13.162;2022-09-09T05:06:49;100517.88;;;12.54;97.73
49835;BME280;35729;52.090;13.162;2022-09-09T05:09:18;100517.84;;;12.56;97.65
49835;BME280;35729;52.090;13.162;2022-09-09T05:11:46;100522.16;;;12.59;97.64
49835;BME280;35729;52.090;13.162;2022-09-09T05:14:14;100519.41;;;12.62;97.53
49835;BME280;35729;52.090;13.162;2022-09-09T05:16:47;100522.00;;;12.63;97.67
49835;BME280;35729;52.090;13.162;2022-09-09T05:19:16;100517.53;;;12.65;97.72
49835;BME280;35729;52.090;13.162;2022-09-09T05:21:45;100526.22;;;12.67;97.47
49835;BME280;35729;52.090;13.162;2022-09-09T05:24:13;100521.78;;;12.69;97.42
49835;BME280;35729;52.090;13.162;2022-09-09T05:26:42;100521.69;;;12.73;97.26
49835;BME280;35729;52.090;13.162;2022-09-09T05:29:11;100527.75;;;12.75;97.15
49835;BME280;35729;52.090;13.162;2022-09-09T05:31:39;100526.84;;;12.76;97.14
49835;BME280;35729;52.090;13.162;2022-09-09T05:34:11;100534.63;;;12.79;96.98
49835;BME280;35729;52.090;13.162;2022-09-09T05:36:39;100542.50;;;12.80;97.02
49835;BME280;35729;52.090;13.162;2022-09-09T05:39:08;100538.91;;;12.81;96.93
49835;BME280;35729;52.090;13.162;2022-09-09T05:41:37;100533.72;;;12.80;96.98
49835;BME280;35729;52.090;13.162;2022-09-09T05:44:05;100538.78;;;12.86;96.75
49835;BME280;35729;52.090;13.162;2022-09-09T05:46:34;100540.44;;;12.88;96.92
49835;BME280;35729;52.090;13.162;2022-09-09T05:49:03;100540.34;;;12.92;96.71
49835;BME280;35729;52.090;13.162;2022-09-09T05:51:34;100549.91;;;12.94;96.80
49835;BME280;35729;52.090;13.162;2022-09-09T05:54:03;100547.09;;;12.99;96.63
49835;BME280;35729;52.090;13.162;2022-09-09T05:56:31;100549.63;;;13.02;96.50
49835;BME280;35729;52.090;13.162;2022-09-09T05:59:00;100545.97;;;13.06;96.61
49835;BME280;35729;52.090;13.162;2022-09-09T06:01:32;100552.81;;;13.12;96.39
49835;BME280;35729;52.090;13.162;2022-09-09T06:04:01;100548.25;;;13.17;96.28
49835;BME280;35729;52.090;13.162;2022-09-09T06:06:35;100547.22;;;13.21;96.43
49835;BME280;35729;52.090;13.162;2022-09-09T06:09:06;100557.59;;;13.26;96.22
49835;BME280;35729;52.090;13.162;2022-09-09T06:11:37;100553.00;;;13.31;96.12
49835;BME280;35729;52.090;13.162;2022-09-09T06:14:06;100551.91;;;13.36;95.82
49835;BME280;35729;52.090;13.162;2022-09-09T06:16:35;100555.34;;;13.40;95.92
49835;BME280;35729;52.090;13.162;2022-09-09T06:19:04;100561.28;;;13.45;95.59
49835;BME280;35729;52.090;13.162;2022-09-09T06:21:36;100550.53;;;13.51;95.22
49835;BME280;35729;52.090;13.162;2022-09-09T06:24:06;100551.22;;;13.57;94.83
49835;BME280;35729;52.090;13.162;2022-09-09T06:26:36;100552.81;;;13.61;94.79
49835;BME280;35729;52.090;13.162;2022-09-09T06:29:06;100546.47;;;13.66;94.56
49835;BME280;35729;52.090;13.162;2022-09-09T06:31:36;100547.22;;;13.70;94.42
49835;BME280;35729;52.090;13.162;2022-09-09T06:34:07;100544.34;;;13.76;94.35
49835;BME280;35729;52.090;13.162;2022-09-09T06:36:38;100554.63;;;13.82;94.33
49835;BME280;35729;52.090;13.162;2022-09-09T06:39:07;100544.72;;;13.89;94.14
49835;BME280;35729;52.090;13.162;2022-09-09T06:41:37;100549.88;;;13.92;93.99
49835;BME280;35729;52.090;13.162;2022-09-09T06:44:06;100556.63;;;13.99;93.68
49835;BME280;35729;52.090;13.162;2022-09-09T06:46:37;100547.66;;;14.04;93.68
49835;BME280;35729;52.090;13.162;2022-09-09T06:49:05;100540.41;;;14.10;93.30
49835;BME280;35729;52.090;13.162;2022-09-09T06:51:38;100547.19;;;14.16;93.02
49835;BME280;35729;52.090;13.162;2022-09-09T06:54:08;100546.09;;;14.22;92.84
49835;BME280;35729;52.090;13.162;2022-09-09T06:56:38;100550.19;;;14.29;93.00
49835;BME280;35729;52.090;13.162;2022-09-09T06:59:09;100549.03;;;14.36;92.64
49835;BME280;35729;52.090;13.162;2022-09-09T07:01:39;100543.50;;;14.42;92.46
49835;BME280;35729;52.090;13.162;2022-09-09T07:04:09;100555.53;;;14.49;92.24
49835;BME280;35729;52.090;13.162;2022-09-09T07:06:43;100552.63;;;14.56;91.83
49835;BME280;35729;52.090;13.162;2022-09-09T07:09:13;100549.81;;;14.60;91.90
49835;BME280;35729;52.090;13.162;2022-09-09T07:11:43;100545.16;;;14.67;91.80
49835;BME280;35729;52.090;13.162;2022-09-09T07:14:13;100547.53;;;14.73;91.21
49835;BME280;35729;52.090;13.162;2022-09-09T07:16:42;100554.28;;;14.80;91.30
49835;BME280;35729;52.090;13.162;2022-09-09T07:19:12;100545.19;;;14.88;90.76
49835;BME280;35729;52.090;13.162;2022-09-09T07:21:43;100557.97;;;14.97;90.60
49835;BME280;35729;52.090;13.162;2022-09-09T07:24:12;100558.53;;;15.05;89.92
49835;BME280;35729;52.090;13.162;2022-09-09T07:26:41;100563.38;;;15.14;89.75
49835;BME280;35729;52.090;13.162;2022-09-09T07:29:09;100562.13;;;15.23;89.21
49835;BME280;35729;52.090;13.162;2022-09-09T07:31:39;100564.44;;;15.31;89.05
49835;BME280;35729;52.090;13.162;2022-09-09T07:34:08;100568.44;;;15.40;88.31
49835;BME280;35729;52.090;13.162;2022-09-09T07:36:38;100572.47;;;15.48;87.65
49835;BME280;35729;52.090;13.162;2022-09-09T07:39:12;100577.41;;;15.56;87.00
49835;BME280;35729;52.090;13.162;2022-09-09T07:41:44;100578.78;;;15.65;86.88
49835;BME280;35729;52.090;13.162;2022-09-09T07:44:15;100579.31;;;15.73;86.37
49835;BME280;35729;52.090;13.162;2022-09-09T07:46:45;100575.31;;;15.84;86.17
49835;BME280;35729;52.090;13.162;2022-09-09T07:49:14;100574.81;;;15.94;86.11
49835;BME280;35729;52.090;13.162;2022-09-09T07:51:45;100584.97;;;16.04;85.59
49835;BME280;35729;52.090;13.162;2022-09-09T07:54:18;100586.38;;;16.11;83.92
49835;BME280;35729;52.090;13.162;2022-09-09T07:56:49;100594.91;;;16.18;83.74
49835;BME280;35729;52.090;13.162;2022-09-09T07:59:19;100594.63;;;16.24;83.90
49835;BME280;35729;52.090;13.162;2022-09-09T08:01:49;100584.81;;;16.26;83.25
49835;BME280;35729;52.090;13.162;2022-09-09T08:04:21;100587.06;;;16.34;83.06
49835;BME280;35729;52.090;13.162;2022-09-09T08:06:52;100592.94;;;16.40;82.72
49835;BME280;35729;52.090;13.162;2022-09-09T08:09:24;100590.94;;;16.45;82.41
49835;BME280;35729;52.090;13.162;2022-09-09T08:11:54;100587.03;;;16.53;81.77
49835;BME280;35729;52.090;13.162;2022-09-09T08:14:24;100585.00;;;16.58;81.80
49835;BME280;35729;52.090;13.162;2022-09-09T08:16:52;100588.16;;;16.66;81.42
49835;BME280;35729;52.090;13.162;2022-09-09T08:19:22;100597.50;;;16.73;81.37
49835;BME280;35729;52.090;13.162;2022-09-09T08:21:51;100582.94;;;16.82;81.08
49835;BME280;35729;52.090;13.162;2022-09-09T08:24:29;100587.81;;;16.91;79.77
49835;BME280;35729;52.090;13.162;2022-09-09T08:26:57;100593.59;;;17.00;80.18
49835;BME280;35729;52.090;13.162;2022-09-09T08:29:26;100582.59;;;17.07;79.87
49835;BME280;35729;52.090;13.162;2022-09-09T08:31:57;100591.78;;;17.18;80.07
49835;BME280;35729;52.090;13.162;2022-09-09T08:34:26;100589.41;;;17.29;79.79
49835;BME280;35729;52.090;13.162;2022-09-09T08:36:56;100588.78;;;17.41;78.98
49835;BME280;35729;52.090;13.162;2022-09-09T08:39:24;100582.81;;;17.54;78.42
49835;BME280;35729;52.090;13.162;2022-09-09T08:45:27;100589.25;;;17.82;76.39
49835;BME280;35729;52.090;13.162;2022-09-09T08:48:18;100583.31;;;17.94;76.44
49835;BME280;35729;52.090;13.162;2022-09-09T08:50:52;100585.50;;;18.03;76.50
49835;BME280;35729;52.090;13.162;2022-09-09T08:53:28;100593.09;;;18.10;75.50
49835;BME280;35729;52.090;13.162;2022-09-09T08:56:00;100590.19;;;18.14;75.17
49835;BME280;35729;52.090;13.162;2022-09-09T08:58:34;100588.72;;;18.24;74.12
49835;BME280;35729;52.090;13.162;2022-09-09T09:04:07;100587.78;;;18.42;74.22
49835;BME280;35729;52.090;13.162;2022-09-09T09:06:48;100582.13;;;18.48;73.58
49835;BME280;35729;52.090;13.162;2022-09-09T09:09:23;100586.19;;;18.53;74.08
49835;BME280;35729;52.090;13.162;2022-09-09T09:11:57;100587.66;;;18.59;73.11
49835;BME280;35729;52.090;13.162;2022-09-09T09:14:31;100586.53;;;18.63;73.34
49835;BME280;35729;52.090;13.162;2022-09-09T09:17:12;100581.91;;;18.67;73.34
49835;BME280;35729;52.090;13.162;2022-09-09T09:19:43;100586.09;;;18.71;73.25
49835;BME280;35729;52.090;13.162;2022-09-09T09:22:17;100594.75;;;18.75;72.63
49835;BME280;35729;52.090;13.162;2022-09-09T09:24:52;100582.22;;;18.77;72.39
49835;BME280;35729;52.090;13.162;2022-09-09T09:27:28;100584.69;;;18.80;72.48
49835;BME280;35729;52.090;13.162;2022-09-09T09:30:12;100582.81;;;18.82;72.49
49835;BME280;35729;52.090;13.162;2022-09-09T09:32:51;100574.47;;;18.88;72.96
49835;BME280;35729;52.090;13.162;2022-09-09T09:35:22;100584.09;;;18.91;72.52
49835;BME280;35729;52.090;13.162;2022-09-09T09:37:50;100587.34;;;18.96;72.66
49835;BME280;35729;52.090;13.162;2022-09-09T09:40:20;100586.09;;;19.01;71.67
49835;BME280;35729;52.090;13.162;2022-09-09T09:42:52;100577.84;;;19.06;70.95
49835;BME280;35729;52.090;13.162;2022-09-09T09:45:27;100587.25;;;19.12;69.87
49835;BME280;35729;52.090;13.162;2022-09-09T09:48:02;100583.50;;;19.16;70.12
49835;BME280;35729;52.090;13.162;2022-09-09T09:50:32;100584.13;;;19.19;70.35
49835;BME280;35729;52.090;13.162;2022-09-09T09:53:04;100580.63;;;19.19;70.13
49835;BME280;35729;52.090;13.162;2022-09-09T09:55:35;100591.66;;;19.27;70.29
49835;BME280;35729;52.090;13.162;2022-09-09T09:58:05;100585.09;;;19.33;70.48
49835;BME280;35729;52.090;13.162;2022-09-09T10:00:47;100586.34;;;19.42;70.06
49835;BME280;35729;52.090;13.162;2022-09-09T10:03:25;100591.28;;;19.48;70.22
49835;BME280;35729;52.090;13.162;2022-09-09T10:05:54;100597.19;;;19.53;69.61
49835;BME280;35729;52.090;13.162;2022-09-09T10:08:24;100591.59;;;19.58;69.18
49835;BME280;35729;52.090;13.162;2022-09-09T10:11:05;100583.41;;;19.61;68.93
49835;BME280;35729;52.090;13.162;2022-09-09T10:13:42;100588.25;;;19.68;68.27
49835;BME280;35729;52.090;13.162;2022-09-09T10:16:30;100583.41;;;19.75;67.37
49835;BME280;35729;52.090;13.162;2022-09-09T10:19:03;100596.28;;;19.83;67.86
49835;BME280;35729;52.090;13.162;2022-09-09T10:21:47;100580.09;;;19.86;65.67
49835;BME280;35729;52.090;13.162;2022-09-09T10:27:21;100591.97;;;19.95;65.16
49835;BME280;35729;52.090;13.162;2022-09-09T10:30:12;100586.34;;;19.99;64.68
49835;BME280;35729;52.090;13.162;2022-09-09T10:32:48;100584.44;;;20.01;65.09
49835;BME280;35729;52.090;13.162;2022-09-09T10:35:31;100588.41;;;20.09;62.77
49835;BME280;35729;52.090;13.162;2022-09-09T10:38:14;100589.06;;;20.12;62.25
49835;BME280;35729;52.090;13.162;2022-09-09T10:40:59;100584.19;;;20.19;64.60
49835;BME280;35729;52.090;13.162;2022-09-09T10:43:50;100588.19;;;20.26;62.34
49835;BME280;35729;52.090;13.162;2022-09-09T10:46:28;100573.59;;;20.32;62.65
49835;BME280;35729;52.090;13.162;2022-09-09T10:49:13;100578.53;;;20.38;63.48
49835;BME280;35729;52.090;13.162;2022-09-09T10:51:49;100588.66;;;20.46;64.15
49835;BME280;35729;52.090;13.162;2022-09-09T10:54:29;100578.47;;;20.53;63.72
49835;BME280;35729;52.090;13.162;2022-09-09T10:57:05;100577.03;;;20.61;63.50
49835;BME280;35729;52.090;13.162;2022-09-09T10:59:42;100580.00;;;20.70;63.67
49835;BME280;35729;52.090;13.162;2022-09-09T11:02:16;100578.56;;;20.78;63.15
49835;BME280;35729;52.090;13.162;2022-09-09T11:04:54;100580.72;;;20.86;61.76
49835;BME280;35729;52.090;13.162;2022-09-09T11:07:30;100575.91;;;20.91;62.01
49835;BME280;35729;52.090;13.162;2022-09-09T11:10:04;100568.47;;;20.96;61.96
49835;BME280;35729;52.090;13.162;2022-09-09T11:12:36;100570.81;;;21.01;61.65
49835;BME280;35729;52.090;13.162;2022-09-09T11:15:15;100574.91;;;21.07;61.23
49835;BME280;35729;52.090;13.162;2022-09-09T11:17:47;100574.56;;;21.11;61.51
49835;BME280;35729;52.090;13.162;2022-09-09T11:20:23;100575.09;;;21.16;60.95
49835;BME280;35729;52.090;13.162;2022-09-09T11:22:57;100570.22;;;21.23;60.76
49835;BME280;35729;52.090;13.162;2022-09-09T11:25:32;100570.41;;;21.33;60.46
49835;BME280;35729;52.090;13.162;2022-09-09T11:28:17;100569.78;;;21.42;58.95
49835;BME280;35729;52.090;13.162;2022-09-09T11:30:57;100562.19;;;21.49;60.27
49835;BME280;35729;52.090;13.162;2022-09-09T11:36:44;100566.13;;;21.69;56.89
49835;BME280;35729;52.090;13.162;2022-09-09T11:42:17;100567.38;;;21.89;58.53
49835;BME280;35729;52.090;13.162;2022-09-09T11:44:46;100570.78;;;21.91;58.15
49835;BME280;35729;52.090;13.162;2022-09-09T11:47:24;100572.16;;;21.97;56.34
49835;BME280;35729;52.090;13.162;2022-09-09T11:50:06;100565.72;;;22.00;56.59
49835;BME280;35729;52.090;13.162;2022-09-09T11:52:42;100564.84;;;22.12;54.84
49835;BME280;35729;52.090;13.162;2022-09-09T11:55:28;100557.84;;;22.22;55.01
49835;BME280;35729;52.090;13.162;2022-09-09T11:57:59;100560.59;;;22.34;54.61
49835;BME280;35729;52.090;13.162;2022-09-09T12:00:33;100545.72;;;22.42;52.90
49835;BME280;35729;52.090;13.162;2022-09-09T12:03:02;100548.31;;;22.55;53.17
49835;BME280;35729;52.090;13.162;2022-09-09T12:05:40;100534.50;;;22.73;52.22
49835;BME280;35729;52.090;13.162;2022-09-09T12:08:22;100537.13;;;22.97;51.54
49835;BME280;35729;52.090;13.162;2022-09-09T12:10:58;100539.50;;;23.24;51.25
49835;BME280;35729;52.090;13.162;2022-09-09T12:13:28;100539.75;;;23.44;51.17
49835;BME280;35729;52.090;13.162;2022-09-09T12:15:58;100541.56;;;23.66;50.78
49835;BME280;35729;52.090;13.162;2022-09-09T12:18:33;100527.06;;;23.91;49.09
49835;BME280;35729;52.090;13.162;2022-09-09T12:21:07;100529.03;;;24.22;48.21
49835;BME280;35729;52.090;13.162;2022-09-09T12:23:48;100527.84;;;24.47;47.77
49835;BME280;35729;52.090;13.162;2022-09-09T12:26:27;100529.13;;;24.64;47.82
49835;BME280;35729;52.090;13.162;2022-09-09T12:29:10;100534.44;;;24.76;46.20
49835;BME280;35729;52.090;13.162;2022-09-09T12:31:45;100522.47;;;24.80;47.58
49835;BME280;35729;52.090;13.162;2022-09-09T12:34:17;100515.13;;;24.82;47.87
49835;BME280;35729;52.090;13.162;2022-09-09T12:36:54;100510.69;;;24.92;46.98
49835;BME280;35729;52.090;13.162;2022-09-09T12:39:32;100515.31;;;25.11;46.78
49835;BME280;35729;52.090;13.162;2022-09-09T12:42:03;100517.09;;;25.32;46.57
49835;BME280;35729;52.090;13.162;2022-09-09T12:44:31;100523.03;;;25.57;46.57
49835;BME280;35729;52.090;13.162;2022-09-09T12:47:02;100526.03;;;25.73;45.59
49835;BME280;35729;52.090;13.162;2022-09-09T12:49:34;100533.22;;;25.73;45.91
49835;BME280;35729;52.090;13.162;2022-09-09T12:52:06;100531.22;;;25.65;45.81
49835;BME280;35729;52.090;13.162;2022-09-09T12:54:44;100531.34;;;25.53;46.45
49835;BME280;35729;52.090;13.162;2022-09-09T12:57:16;100532.41;;;25.41;46.61
49835;BME280;35729;52.090;13.162;2022-09-09T12:59:45;100537.41;;;25.25;46.61
49835;BME280;35729;52.090;13.162;2022-09-09T13:02:20;100536.34;;;25.06;46.90
49835;BME280;35729;52.090;13.162;2022-09-09T13:04:49;100529.13;;;24.85;47.41
49835;BME280;35729;52.090;13.162;2022-09-09T13:07:20;100535.22;;;24.66;47.83
49835;BME280;35729;52.090;13.162;2022-09-09T13:09:53;100532.75;;;24.42;48.07
49835;BME280;35729;52.090;13.162;2022-09-09T13:12:22;100528.78;;;24.25;48.27
49835;BME280;35729;52.090;13.162;2022-09-09T13:14:53;100516.78;;;24.08;48.56
49835;BME280;35729;52.090;13.162;2022-09-09T13:17:23;100522.44;;;23.94;49.43
49835;BME280;35729;52.090;13.162;2022-09-09T13:19:55;100519.03;;;23.80;49.63
49835;BME280;35729;52.090;13.162;2022-09-09T13:22:30;100508.31;;;23.69;50.16